createdAt,value
2018-09-20T00:00:41.408Z,14.63
2018-09-20T00:03:09.972Z,17.80
2018-09-20T00:05:38.518Z,11.88
2018-09-20T00:08:07.064Z,13.40
2018-09-20T00:10:35.549Z,15.13
2018-09-20T00:13:04.014Z,13.95
2018-09-20T00:15:32.515Z,15.55
2018-09-20T00:18:01.084Z,14.00
2018-09-20T00:20:29.664Z,12.53
2018-09-20T00:22:58.163Z,14.73
2018-09-20T00:25:26.656Z,17.25
2018-09-20T00:27:55.175Z,14.25
2018-09-20T00:30:23.756Z,14.13
2018-09-20T00:32:52.337Z,13.22
2018-09-20T00:35:20.871Z,12.75
2018-09-20T00:37:49.420Z,16.95
2018-09-20T00:40:18.018Z,12.80
2018-09-20T00:42:46.590Z,15.23
2018-09-20T00:45:15.092Z,18.27
2018-09-20T00:47:43.606Z,14.35
2018-09-20T00:50:12.117Z,17.05
2018-09-20T00:52:40.648Z,11.90
2018-09-20T00:55:09.232Z,16.70
2018-09-20T00:57:37.803Z,12.88
2018-09-20T01:00:06.375Z,23.38
2018-09-20T01:02:34.978Z,13.20
2018-09-20T01:05:03.708Z,15.23
2018-09-20T01:07:32.280Z,12.23
2018-09-20T01:10:00.904Z,15.05
2018-09-20T01:12:29.471Z,15.00
2018-09-20T01:14:58.054Z,17.82
2018-09-20T01:17:26.564Z,15.70
2018-09-20T01:19:55.082Z,14.28
2018-09-20T01:22:23.578Z,15.63
2018-09-20T01:24:52.141Z,12.75
2018-09-20T01:27:20.669Z,19.42
2018-09-20T01:29:49.209Z,19.67
2018-09-20T01:32:17.900Z,15.23
2018-09-20T01:34:46.447Z,16.77
2018-09-20T01:37:15.011Z,15.53
2018-09-20T01:39:43.581Z,19.07
2018-09-20T01:42:12.087Z,15.55
2018-09-20T01:44:40.648Z,17.12
2018-09-20T01:47:09.227Z,13.53
2018-09-20T01:49:37.745Z,17.55
2018-09-20T01:52:06.298Z,17.85
2018-09-20T01:54:34.899Z,16.17
2018-09-20T01:57:03.461Z,17.67
2018-09-20T01:59:31.947Z,18.12
2018-09-20T02:02:00.608Z,15.13
2018-09-20T02:04:29.191Z,15.35
2018-09-20T02:06:57.831Z,14.65
2018-09-20T02:09:26.443Z,14.45
2018-09-20T02:11:54.986Z,15.32
2018-09-20T02:14:23.594Z,15.43
2018-09-20T02:16:52.117Z,15.72
2018-09-20T02:19:20.782Z,16.17
2018-09-20T02:21:49.350Z,12.95
2018-09-20T02:24:17.887Z,13.25
2018-09-20T02:26:46.424Z,19.52
2018-09-20T02:29:15.049Z,17.15
2018-09-20T02:31:44.349Z,13.50
2018-09-20T02:34:12.997Z,13.00
2018-09-20T02:36:41.463Z,14.93
2018-09-20T02:39:10.004Z,16.17
2018-09-20T02:41:38.578Z,13.22
2018-09-20T02:44:07.103Z,14.45
2018-09-20T02:46:35.653Z,15.45
2018-09-20T02:49:04.195Z,12.65
2018-09-20T02:51:32.779Z,19.07
2018-09-20T02:54:01.403Z,15.60
2018-09-20T02:56:29.897Z,16.35
2018-09-20T02:58:58.540Z,15.38
2018-09-20T03:01:27.066Z,15.25
2018-09-20T03:03:55.642Z,16.37
2018-09-20T03:06:24.229Z,15.58
2018-09-20T03:08:52.830Z,16.97
2018-09-20T03:11:21.438Z,14.53
2018-09-20T03:13:50.011Z,18.95
2018-09-20T03:16:18.558Z,18.00
2018-09-20T03:18:47.141Z,16.75
2018-09-20T03:21:15.739Z,19.32
2018-09-20T03:23:44.295Z,18.07
2018-09-20T03:26:12.821Z,13.75
2018-09-20T03:28:41.361Z,17.02
2018-09-20T03:31:10.596Z,15.13
2018-09-20T03:33:39.148Z,12.20
2018-09-20T03:36:07.798Z,13.85
2018-09-20T03:38:36.354Z,13.62
2018-09-20T03:41:04.949Z,18.62
2018-09-20T03:43:33.532Z,15.63
2018-09-20T03:46:02.189Z,12.35
2018-09-20T03:48:30.770Z,13.30
2018-09-20T03:50:59.394Z,14.43
2018-09-20T03:53:28.295Z,11.73
2018-09-20T03:55:56.911Z,16.60
2018-09-20T03:58:25.519Z,17.00
2018-09-20T04:00:54.073Z,15.80
2018-09-20T04:03:22.720Z,19.02
2018-09-20T04:05:51.332Z,12.63
2018-09-20T04:08:19.844Z,15.48
2018-09-20T04:10:48.404Z,15.85
2018-09-20T04:13:16.954Z,18.48
2018-09-20T04:15:45.650Z,15.72
2018-09-20T04:18:14.313Z,17.67
2018-09-20T04:20:43.061Z,18.73
2018-09-20T04:23:11.643Z,15.70
2018-09-20T04:25:40.185Z,16.40
2018-09-20T04:28:08.783Z,13.53
2018-09-20T04:30:37.364Z,17.87
2018-09-20T04:33:06.032Z,18.05
2018-09-20T04:35:35.281Z,20.00
2018-09-20T04:38:06.858Z,16.73
2018-09-20T04:40:35.376Z,18.73
2018-09-20T04:43:04.043Z,17.73
2018-09-20T04:45:32.618Z,18.48
2018-09-20T04:48:01.100Z,21.33
2018-09-20T04:50:29.726Z,18.85
2018-09-20T04:52:58.278Z,13.30
2018-09-20T04:55:26.894Z,16.27
2018-09-20T04:57:55.452Z,15.05
2018-09-20T05:00:23.997Z,18.00
2018-09-20T05:02:52.557Z,15.83
2018-09-20T05:05:21.183Z,14.38
2018-09-20T05:07:49.706Z,18.27
2018-09-20T05:10:18.270Z,15.80
2018-09-20T05:12:47.076Z,17.90
2018-09-20T05:15:15.726Z,14.85
2018-09-20T05:17:44.263Z,15.43
2018-09-20T05:20:12.865Z,15.55
2018-09-20T05:22:41.371Z,14.68
2018-09-20T05:25:09.967Z,13.10
2018-09-20T05:27:38.482Z,19.75
2018-09-20T05:30:07.574Z,14.98
2018-09-20T05:32:36.172Z,17.85
2018-09-20T05:35:04.815Z,20.30
2018-09-20T05:37:33.329Z,18.12
2018-09-20T05:40:02.006Z,21.52
2018-09-20T05:42:30.681Z,17.37
2018-09-20T05:46:28.766Z,19.92
2018-09-20T05:48:57.303Z,15.90
2018-09-20T05:51:25.954Z,13.62
2018-09-20T05:53:55.816Z,15.75
2018-09-20T05:56:24.296Z,16.57
2018-09-20T05:58:53.119Z,13.48
2018-09-20T06:01:21.711Z,16.40
2018-09-20T06:03:50.273Z,16.12
2018-09-20T06:06:18.954Z,14.68
2018-09-20T06:08:47.599Z,17.82
2018-09-20T06:11:16.278Z,18.27
2018-09-20T06:13:44.938Z,18.23
2018-09-20T06:16:13.495Z,14.75
2018-09-20T06:18:42.074Z,15.00
2018-09-20T06:21:10.679Z,13.53
2018-09-20T06:23:39.253Z,16.97
2018-09-20T06:26:07.823Z,16.93
2018-09-20T06:28:36.408Z,15.85
2018-09-20T06:31:05.096Z,13.38
2018-09-20T06:33:33.711Z,15.55
2018-09-20T06:36:02.395Z,13.62
2018-09-20T06:38:30.951Z,16.75
2018-09-20T06:40:59.710Z,15.55
2018-09-20T06:43:28.199Z,15.45
2018-09-20T06:45:57.167Z,14.53
2018-09-20T06:48:25.711Z,13.08
2018-09-20T06:50:55.104Z,15.08
2018-09-20T06:53:23.806Z,15.58
2018-09-20T06:55:52.371Z,14.25
2018-09-20T06:58:22.213Z,15.30
2018-09-20T07:00:50.892Z,14.15
2018-09-20T07:03:19.708Z,14.20
2018-09-20T07:05:48.380Z,20.15
2018-09-20T07:08:16.947Z,11.57
2018-09-20T07:10:45.615Z,14.10
2018-09-20T07:13:14.232Z,15.95
2018-09-20T07:15:42.939Z,13.30
2018-09-20T07:18:11.671Z,13.00
2018-09-20T07:20:40.473Z,17.17
2018-09-20T07:23:09.115Z,12.15
2018-09-20T07:25:37.740Z,13.38
2018-09-20T07:28:06.320Z,15.05
2018-09-20T07:30:34.988Z,13.30
2018-09-20T07:33:03.779Z,17.37
2018-09-20T07:35:32.502Z,15.85
2018-09-20T07:38:01.279Z,15.72
2018-09-20T07:40:29.923Z,13.80
2018-09-20T07:42:58.430Z,14.03
2018-09-20T07:45:28.174Z,18.70
2018-09-20T07:47:57.923Z,12.58
2018-09-20T07:50:26.605Z,14.95
2018-09-20T07:52:55.496Z,14.58
2018-09-20T07:55:24.329Z,13.78
2018-09-20T07:57:53.044Z,12.82
2018-09-20T08:00:21.596Z,16.37
2018-09-20T08:02:50.161Z,11.75
2018-09-20T08:05:18.794Z,17.98
2018-09-20T08:07:47.361Z,11.12
2018-09-20T08:10:16.145Z,12.63
2018-09-20T08:12:44.774Z,13.55
2018-09-20T08:15:13.324Z,12.47
2018-09-20T08:17:41.923Z,13.70
2018-09-20T08:20:10.423Z,14.45
2018-09-20T08:22:39.292Z,14.40
2018-09-20T08:25:08.016Z,13.18
2018-09-20T08:27:36.765Z,14.58
2018-09-20T08:30:06.794Z,15.10
2018-09-20T08:33:06.442Z,16.42
2018-09-20T08:35:35.026Z,14.68
2018-09-20T08:38:03.669Z,12.58
2018-09-20T08:40:32.204Z,8.95
2018-09-20T08:43:00.904Z,14.45
2018-09-20T08:45:29.493Z,11.60
2018-09-20T08:47:57.984Z,12.95
2018-09-20T08:50:26.684Z,11.70
2018-09-20T08:52:55.430Z,14.25
2018-09-20T08:55:24.140Z,10.18
2018-09-20T08:57:55.535Z,12.75
2018-09-20T09:00:24.499Z,14.58
2018-09-20T09:02:53.153Z,10.93
2018-09-20T09:05:21.856Z,9.88
2018-09-20T09:07:50.382Z,15.00
2018-09-20T09:10:18.952Z,12.45
2018-09-20T09:12:47.505Z,12.98
2018-09-20T09:15:16.117Z,15.43
2018-09-20T09:17:44.710Z,11.40
2018-09-20T09:20:13.315Z,14.15
2018-09-20T09:22:41.884Z,10.05
2018-09-20T09:25:10.443Z,13.15
2018-09-20T09:27:38.988Z,15.70
2018-09-20T09:30:07.570Z,10.88
2018-09-20T09:32:36.112Z,10.05
2018-09-20T09:35:04.657Z,10.95
2018-09-20T09:37:33.263Z,12.00
2018-09-20T09:40:01.806Z,8.33
2018-09-20T09:42:30.372Z,12.50
2018-09-20T09:44:58.857Z,12.30
2018-09-20T09:47:27.384Z,9.85
2018-09-20T09:49:55.896Z,10.53
2018-09-20T09:52:24.422Z,8.60
2018-09-20T09:54:53.020Z,7.85
2018-09-20T09:57:21.499Z,10.13
2018-09-20T09:59:50.060Z,9.33
2018-09-20T10:02:19.283Z,11.80
2018-09-20T10:04:47.842Z,8.18
2018-09-20T10:07:16.474Z,8.55
2018-09-20T10:09:44.981Z,9.88
2018-09-20T10:12:13.543Z,8.23
2018-09-20T10:14:42.038Z,9.53
2018-09-20T10:17:10.578Z,11.93
2018-09-20T10:19:39.118Z,11.68
2018-09-20T10:22:07.652Z,9.90
2018-09-20T10:24:36.205Z,8.75
2018-09-20T10:27:04.728Z,8.43
2018-09-20T10:29:33.279Z,6.50
2018-09-20T10:32:01.849Z,9.48
2018-09-20T10:34:30.450Z,8.58
2018-09-20T10:36:59.047Z,9.50
2018-09-20T10:39:29.699Z,9.70
2018-09-20T10:41:58.234Z,9.88
2018-09-20T10:44:26.801Z,8.70
2018-09-20T10:46:55.382Z,11.65
2018-09-20T10:49:23.925Z,9.48
2018-09-20T10:51:52.489Z,8.33
2018-09-20T10:54:20.991Z,8.33
2018-09-20T10:56:49.549Z,7.55
2018-09-20T10:59:18.052Z,8.88
2018-09-20T11:01:46.615Z,9.03
2018-09-20T11:04:15.221Z,9.43
2018-09-20T11:06:43.771Z,9.38
2018-09-20T11:09:12.344Z,7.47
2018-09-20T11:11:40.908Z,11.97
2018-09-20T11:14:09.506Z,7.95
2018-09-20T11:16:38.802Z,9.58
2018-09-20T11:19:07.451Z,7.33
2018-09-20T11:21:36.085Z,7.47
2018-09-20T11:24:04.716Z,9.75
2018-09-20T11:26:33.985Z,7.53
2018-09-20T11:29:02.773Z,8.00
2018-09-20T11:31:31.247Z,7.00
2018-09-20T11:33:59.788Z,7.30
2018-09-20T11:36:28.313Z,6.40
2018-09-20T11:38:56.857Z,8.05
2018-09-20T11:41:25.525Z,10.53
2018-09-20T11:43:54.055Z,8.70
2018-09-20T11:46:22.586Z,9.15
2018-09-20T11:48:51.091Z,9.48
2018-09-20T11:51:19.607Z,9.35
2018-09-20T11:53:48.169Z,10.15
2018-09-20T11:56:17.583Z,8.60
2018-09-20T11:58:46.215Z,7.50
2018-09-20T12:01:14.761Z,11.05
2018-09-20T12:03:43.324Z,9.00
2018-09-20T12:06:11.929Z,13.88
2018-09-20T12:08:40.440Z,6.45
2018-09-20T12:11:09.014Z,9.73
2018-09-20T12:13:38.031Z,11.90
2018-09-20T12:16:06.610Z,9.10
2018-09-20T12:18:35.126Z,11.57
2018-09-20T12:21:03.645Z,6.62
2018-09-20T12:23:32.462Z,7.87
2018-09-20T12:26:01.138Z,9.00
2018-09-20T12:28:29.632Z,8.03
2018-09-20T12:30:58.209Z,8.25
2018-09-20T12:33:26.763Z,10.30
2018-09-20T12:35:55.390Z,7.90
2018-09-20T12:38:23.876Z,9.78
2018-09-20T12:40:52.431Z,9.90
2018-09-20T12:43:21.001Z,5.90
2018-09-20T12:45:49.554Z,8.83
2018-09-20T12:48:18.125Z,7.92
2018-09-20T12:50:46.643Z,8.08
2018-09-20T12:53:15.142Z,9.73
2018-09-20T12:55:43.688Z,8.83
2018-09-20T12:58:12.181Z,8.75
2018-09-20T13:00:40.809Z,7.17
2018-09-20T13:03:09.309Z,11.57
2018-09-20T13:05:37.830Z,4.95
2018-09-20T13:08:06.332Z,7.22
2018-09-20T13:10:34.891Z,5.45
2018-09-20T13:13:03.466Z,8.45
2018-09-20T13:15:32.358Z,7.15
2018-09-20T13:18:00.846Z,5.90
2018-09-20T13:20:29.402Z,7.80
2018-09-20T13:22:57.928Z,8.85
2018-09-20T13:25:26.595Z,9.73
2018-09-20T13:27:55.045Z,8.85
2018-09-20T13:30:23.583Z,7.37
2018-09-20T13:32:52.130Z,6.62
2018-09-20T13:35:20.657Z,6.90
2018-09-20T13:37:49.223Z,8.25
2018-09-20T13:40:17.801Z,7.80
2018-09-20T13:42:46.365Z,7.08
2018-09-20T13:45:14.520Z,5.15
2018-09-20T13:47:43.069Z,6.15
2018-09-20T13:50:11.625Z,5.72
2018-09-20T13:52:40.678Z,5.53
2018-09-20T13:55:09.008Z,4.33
2018-09-20T13:57:37.548Z,5.70
2018-09-20T14:00:06.883Z,6.92
2018-09-20T14:02:35.465Z,8.90
2018-09-20T14:05:04.137Z,10.65
2018-09-20T14:07:32.311Z,8.88
2018-09-20T14:10:00.876Z,7.15
2018-09-20T14:12:29.374Z,6.37
2018-09-20T14:14:59.269Z,7.65
2018-09-20T14:17:27.853Z,7.70
2018-09-20T14:19:57.163Z,8.38
2018-09-20T14:22:25.708Z,7.87
2018-09-20T14:24:54.297Z,6.45
2018-09-20T14:27:22.803Z,6.30
2018-09-20T14:29:51.305Z,7.25
2018-09-20T14:32:19.840Z,6.85
2018-09-20T14:34:48.401Z,6.17
2018-09-20T14:37:16.955Z,6.95
2018-09-20T14:39:45.518Z,6.70
2018-09-20T14:42:14.099Z,6.58
2018-09-20T14:44:42.636Z,6.87
2018-09-20T14:47:11.221Z,6.25
2018-09-20T14:49:39.715Z,6.47
2018-09-20T14:52:08.227Z,7.30
2018-09-20T14:54:36.726Z,6.53
2018-09-20T14:57:05.265Z,5.37
2018-09-20T14:59:33.813Z,4.80
2018-09-20T15:02:03.137Z,5.10
2018-09-20T15:04:31.698Z,4.75
2018-09-20T15:07:00.246Z,5.12
2018-09-20T15:09:28.755Z,5.05
2018-09-20T15:11:57.319Z,4.17
2018-09-20T15:14:25.857Z,3.62
2018-09-20T15:16:54.393Z,2.95
2018-09-20T15:19:22.923Z,3.20
2018-09-20T15:21:51.406Z,2.70
2018-09-20T15:24:19.924Z,2.87
2018-09-20T15:26:48.430Z,2.98
2018-09-20T15:29:17.022Z,3.30
2018-09-20T15:31:45.527Z,4.03
2018-09-20T15:34:14.022Z,5.47
2018-09-20T15:36:42.551Z,6.53
2018-09-20T15:39:12.232Z,5.97
2018-09-20T15:41:41.024Z,5.53
2018-09-20T15:44:10.224Z,4.80
2018-09-20T15:46:38.719Z,6.78
2018-09-20T15:49:07.242Z,6.47
2018-09-20T15:51:35.797Z,5.42
2018-09-20T15:54:04.355Z,7.80
2018-09-20T15:56:32.904Z,5.05
2018-09-20T15:59:01.398Z,6.60
2018-09-20T16:01:29.954Z,6.60
2018-09-20T16:03:58.559Z,4.87
2018-09-20T16:06:27.589Z,6.03
2018-09-20T16:08:56.062Z,6.75
2018-09-20T16:11:24.556Z,7.65
2018-09-20T16:13:53.088Z,6.35
2018-09-20T16:16:21.635Z,6.97
2018-09-20T16:18:50.360Z,5.85
2018-09-20T16:21:18.858Z,5.10
2018-09-20T16:23:47.439Z,11.00
2018-09-20T16:26:15.976Z,6.72
2018-09-20T16:28:56.779Z,5.60
2018-09-20T16:37:06.185Z,6.22
2018-09-20T16:39:36.189Z,8.00
2018-09-20T16:42:05.668Z,4.83
2018-09-20T16:44:34.169Z,6.95
2018-09-20T16:47:02.682Z,5.95
2018-09-20T16:49:31.199Z,7.37
2018-09-20T16:51:59.762Z,8.88
2018-09-20T16:54:28.324Z,7.33
2018-09-20T16:56:56.800Z,8.48
2018-09-20T16:59:25.318Z,7.58
2018-09-20T17:01:53.849Z,7.75
2018-09-20T17:04:22.479Z,7.25
2018-09-20T17:06:51.075Z,7.40
2018-09-20T17:09:19.655Z,13.05
2018-09-20T17:11:48.157Z,6.08
2018-09-20T17:14:16.697Z,12.05
2018-09-20T17:16:45.276Z,7.75
2018-09-20T17:19:13.781Z,9.73
2018-09-20T17:21:42.310Z,5.37
2018-09-20T17:24:10.866Z,6.10
2018-09-20T17:26:39.340Z,8.40
2018-09-20T17:29:07.831Z,9.65
2018-09-20T17:31:36.320Z,8.58
2018-09-20T17:34:04.818Z,10.23
2018-09-20T17:36:33.841Z,7.40
2018-09-20T17:39:03.174Z,9.70
2018-09-20T17:41:34.001Z,9.10
2018-09-20T17:44:05.309Z,7.72
2018-09-20T17:46:33.789Z,8.70
2018-09-20T17:49:02.357Z,8.30
2018-09-20T17:51:31.141Z,7.47
2018-09-20T17:54:00.120Z,13.03
2018-09-20T17:56:29.073Z,8.78
2018-09-20T17:58:57.962Z,8.50
2018-09-20T18:01:26.456Z,8.13
2018-09-20T18:03:54.975Z,10.00
2018-09-20T18:06:23.534Z,10.00
2018-09-20T18:08:52.008Z,10.82
2018-09-20T18:11:20.550Z,8.40
2018-09-20T18:13:49.122Z,8.40
2018-09-20T18:16:17.672Z,9.35
2018-09-20T18:18:46.376Z,10.10
2018-09-20T18:21:14.925Z,8.83
2018-09-20T18:23:43.463Z,10.13
2018-09-20T18:26:11.969Z,12.07
2018-09-20T18:28:40.514Z,9.30
2018-09-20T18:31:09.150Z,10.85
2018-09-20T18:33:37.677Z,9.30
2018-09-20T18:36:06.182Z,11.63
2018-09-20T18:38:34.729Z,13.90
2018-09-20T18:41:03.247Z,11.53
2018-09-20T18:43:31.818Z,13.45
2018-09-20T18:46:00.343Z,8.75
2018-09-20T18:48:28.895Z,13.30
2018-09-20T18:50:57.384Z,14.98
2018-09-20T18:53:25.965Z,10.05
2018-09-20T18:55:54.427Z,7.90
2018-09-20T18:58:22.970Z,8.65
2018-09-20T19:00:53.003Z,10.20
2018-09-20T19:03:22.453Z,15.58
2018-09-20T19:05:50.947Z,11.45
2018-09-20T19:08:19.620Z,10.98
2018-09-20T19:10:48.167Z,13.55
2018-09-20T19:13:16.718Z,12.13
2018-09-20T19:15:45.278Z,13.35
2018-09-20T19:18:14.065Z,12.53
2018-09-20T19:20:42.648Z,11.35
2018-09-20T19:23:11.198Z,11.80
2018-09-20T19:25:39.762Z,11.45
2018-09-20T19:28:09.646Z,11.20
2018-09-20T19:30:38.130Z,14.43
2018-09-20T19:33:06.629Z,10.30
2018-09-20T19:35:35.230Z,8.65
2018-09-20T19:38:03.715Z,9.08
2018-09-20T19:40:32.237Z,9.65
2018-09-20T19:43:00.732Z,8.78
2018-09-20T19:45:29.217Z,10.58
2018-09-20T19:47:57.772Z,9.23
2018-09-20T19:50:26.807Z,13.18
2018-09-20T19:52:55.326Z,8.60
2018-09-20T19:55:23.831Z,11.00
2018-09-20T19:57:52.367Z,9.60
2018-09-20T20:00:20.902Z,9.13
2018-09-20T20:02:49.428Z,12.23
2018-09-20T20:05:17.936Z,7.22
2018-09-20T20:07:47.105Z,9.90
2018-09-20T20:10:15.638Z,9.80
2018-09-20T20:12:44.143Z,14.80
2018-09-20T20:15:12.617Z,9.85
2018-09-20T20:17:41.179Z,7.28
2018-09-20T20:20:09.719Z,10.88
2018-09-20T20:22:38.213Z,9.43
2018-09-20T20:25:06.698Z,9.48
2018-09-20T20:27:35.182Z,6.05
2018-09-20T20:30:03.728Z,9.73
2018-09-20T20:32:32.267Z,8.48
2018-09-20T20:35:00.740Z,9.88
2018-09-20T20:37:29.222Z,11.08
2018-09-20T20:39:57.757Z,8.35
2018-09-20T20:42:26.277Z,9.25
2018-09-20T20:44:55.090Z,10.85
2018-09-20T20:47:23.538Z,8.60
2018-09-20T20:49:52.029Z,9.23
2018-09-20T20:52:20.704Z,10.08
2018-09-20T20:54:49.298Z,13.03
2018-09-20T20:57:17.845Z,11.57
2018-09-20T20:59:46.417Z,11.63
2018-09-20T21:02:14.943Z,14.05
2018-09-20T21:04:43.479Z,14.07
2018-09-20T21:07:12.042Z,13.03
2018-09-20T21:09:40.597Z,13.85
2018-09-20T21:12:09.194Z,13.13
2018-09-20T21:14:37.804Z,12.28
2018-09-20T21:17:06.416Z,9.78
2018-09-20T21:19:34.966Z,9.90
2018-09-20T21:22:03.543Z,10.55
2018-09-20T21:24:32.073Z,9.08
2018-09-20T21:27:00.574Z,6.78
2018-09-20T21:29:29.143Z,7.72
2018-09-20T21:31:57.760Z,9.13
2018-09-20T21:34:26.266Z,8.10
2018-09-20T21:36:54.884Z,8.00
2018-09-20T21:39:23.443Z,8.98
2018-09-20T21:41:51.994Z,12.13
2018-09-20T21:44:20.555Z,9.70
2018-09-20T21:46:49.084Z,15.28
2018-09-20T21:49:17.542Z,9.30
2018-09-20T21:51:46.092Z,10.70
2018-09-20T21:54:14.623Z,9.88
2018-09-20T21:56:43.148Z,10.13
2018-09-20T21:59:11.634Z,9.33
2018-09-20T22:01:45.590Z,8.63
2018-09-20T22:04:14.218Z,12.30
2018-09-20T22:06:42.725Z,11.45
2018-09-20T22:09:12.376Z,13.40
2018-09-20T22:11:41.230Z,12.37
2018-09-20T22:14:09.811Z,11.28
2018-09-20T22:16:38.766Z,9.70
2018-09-20T22:19:07.270Z,9.78
2018-09-20T22:21:35.789Z,12.35
2018-09-20T22:24:04.316Z,10.70
2018-09-20T22:26:32.871Z,7.60
2018-09-20T22:29:01.374Z,10.10
2018-09-20T22:31:29.889Z,11.05
2018-09-20T22:33:58.439Z,10.70
2018-09-20T22:36:26.958Z,6.78
2018-09-20T22:38:55.522Z,11.03
2018-09-20T22:41:24.239Z,9.43
2018-09-20T22:43:52.734Z,6.87
2018-09-20T22:46:21.626Z,8.08
2018-09-20T22:48:50.141Z,10.72
2018-09-20T22:51:18.617Z,8.55
2018-09-20T22:53:47.119Z,10.68
2018-09-20T22:56:16.570Z,9.35
2018-09-20T22:58:45.094Z,9.85
2018-09-20T23:01:16.806Z,7.17
2018-09-20T23:03:45.898Z,9.40
2018-09-20T23:06:14.428Z,10.15
2018-09-20T23:08:42.951Z,8.98
2018-09-20T23:11:11.493Z,8.48
2018-09-20T23:13:40.086Z,8.58
2018-09-20T23:16:08.609Z,8.33
2018-09-20T23:18:37.108Z,10.13
2018-09-20T23:21:05.697Z,10.70
2018-09-20T23:23:34.251Z,7.50
2018-09-20T23:26:02.740Z,11.80
2018-09-20T23:28:31.222Z,11.40
2018-09-20T23:30:59.709Z,12.07
2018-09-20T23:33:28.192Z,10.53
2018-09-20T23:35:56.768Z,6.92
2018-09-20T23:38:25.330Z,12.18
2018-09-20T23:40:53.905Z,12.98
2018-09-20T23:43:22.426Z,9.70
2018-09-20T23:45:50.936Z,11.70
2018-09-20T23:48:19.490Z,8.23
2018-09-20T23:50:47.977Z,11.10
2018-09-20T23:53:16.529Z,8.08
2018-09-20T23:55:45.073Z,10.72
2018-09-20T23:58:13.590Z,9.00
